createdAt,value
2023-04-03T00:01:38.610Z,3.77
2023-04-03T00:04:21.273Z,3.50
2023-04-03T00:06:50.269Z,3.20
2023-04-03T00:09:17.765Z,3.47
2023-04-03T00:11:45.183Z,3.70
2023-04-03T00:14:13.820Z,3.77
2023-04-03T00:16:41.833Z,3.33
2023-04-03T00:19:09.587Z,3.57
2023-04-03T00:21:37.918Z,3.20
2023-04-03T00:24:05.552Z,3.30
2023-04-03T00:26:33.289Z,3.50
2023-04-03T00:29:01.832Z,3.50
2023-04-03T00:31:29.269Z,3.40
2023-04-03T00:33:56.842Z,3.43
2023-04-03T00:36:24.830Z,3.70
2023-04-03T00:38:52.801Z,3.70
2023-04-03T00:41:21.388Z,3.50
2023-04-03T00:43:49.923Z,3.50
2023-04-03T00:46:18.943Z,3.80
2023-04-03T00:48:47.408Z,3.53
2023-04-03T00:51:16.338Z,3.30
2023-04-03T00:53:50.108Z,2.90
2023-04-03T00:56:20.220Z,3.57
2023-04-03T00:58:53.307Z,3.03
2023-04-03T01:01:23.991Z,3.07
2023-04-03T01:03:54.577Z,3.07
2023-04-03T01:06:27.025Z,2.87
2023-04-03T01:08:54.636Z,3.00
2023-04-03T01:11:23.590Z,2.50
2023-04-03T01:13:51.341Z,3.23
2023-04-03T01:16:20.052Z,3.10
2023-04-03T01:18:50.068Z,4.00
2023-04-03T01:21:33.106Z,2.70
2023-04-03T01:24:19.592Z,2.90
2023-04-03T01:26:47.437Z,3.70
2023-04-03T01:29:16.189Z,3.43
2023-04-03T01:31:46.949Z,2.90
2023-04-03T01:34:14.732Z,3.10
2023-04-03T01:36:44.925Z,3.20
2023-04-03T01:39:12.471Z,3.20
2023-04-03T01:41:40.783Z,2.93
2023-04-03T01:44:17.128Z,3.07
2023-04-03T01:46:46.698Z,2.77
2023-04-03T01:49:22.050Z,3.70
2023-04-03T01:51:49.509Z,2.87
2023-04-03T01:54:17.072Z,2.70
2023-04-03T01:56:46.892Z,2.63
2023-04-03T01:59:18.212Z,2.50
2023-04-03T02:01:46.454Z,2.67
2023-04-03T02:04:14.434Z,2.70
2023-04-03T02:06:43.882Z,3.20
2023-04-03T02:09:11.664Z,2.60
2023-04-03T02:11:39.257Z,2.80
2023-04-03T02:14:06.817Z,2.90
2023-04-03T02:16:37.481Z,3.30
2023-04-03T02:19:05.051Z,2.60
2023-04-03T02:21:32.725Z,3.27
2023-04-03T02:24:00.933Z,2.60
2023-04-03T02:26:28.780Z,2.60
2023-04-03T02:28:56.248Z,3.00
2023-04-03T02:31:25.116Z,2.87
2023-04-03T02:33:53.830Z,2.83
2023-04-03T02:36:21.581Z,3.00
2023-04-03T02:38:54.152Z,3.70
2023-04-03T02:41:21.998Z,3.40
2023-04-03T02:43:53.510Z,3.03
2023-04-03T02:46:21.496Z,3.27
2023-04-03T02:48:49.040Z,2.97
2023-04-03T02:51:16.448Z,2.73
2023-04-03T02:53:44.024Z,2.77
2023-04-03T02:56:18.450Z,2.70
2023-04-03T02:58:47.786Z,2.93
2023-04-03T03:01:15.640Z,2.27
2023-04-03T03:03:44.072Z,2.57
2023-04-03T03:06:16.784Z,2.73
2023-04-03T03:08:48.528Z,2.40
2023-04-03T03:11:16.971Z,2.47
2023-04-03T03:13:45.800Z,2.30
2023-04-03T03:16:13.820Z,2.90
2023-04-03T03:18:41.218Z,2.40
2023-04-03T03:21:08.813Z,3.17
2023-04-03T03:23:36.944Z,2.57
2023-04-03T03:26:09.495Z,2.20
2023-04-03T03:28:37.667Z,2.37
2023-04-03T03:31:08.528Z,2.20
2023-04-03T03:33:40.072Z,2.20
2023-04-03T03:36:08.198Z,4.13
2023-04-03T03:38:37.786Z,2.20
2023-04-03T03:41:06.790Z,2.77
2023-04-03T03:43:35.707Z,2.30
2023-04-03T03:46:05.085Z,2.60
2023-04-03T03:48:33.833Z,2.33
2023-04-03T03:51:02.240Z,2.63
2023-04-03T03:53:34.103Z,2.40
2023-04-03T03:56:08.574Z,2.63
2023-04-03T03:58:37.568Z,2.60
2023-04-03T04:01:07.020Z,2.87
2023-04-03T04:03:39.018Z,2.20
2023-04-03T04:06:08.942Z,2.30
2023-04-03T04:08:37.501Z,2.40
2023-04-03T04:11:07.547Z,2.60
2023-04-03T04:13:35.415Z,2.53
2023-04-03T04:16:05.247Z,2.50
2023-04-03T04:18:34.758Z,2.80
2023-04-03T04:21:04.242Z,2.70
2023-04-03T04:23:33.331Z,2.70
2023-04-03T04:26:05.703Z,2.67
2023-04-03T04:28:38.131Z,2.70
2023-04-03T04:31:08.191Z,3.20
2023-04-03T04:33:37.791Z,2.77
2023-04-03T04:36:06.955Z,3.23
2023-04-03T04:38:38.616Z,3.00
2023-04-03T04:41:06.411Z,2.93
2023-04-03T04:43:34.327Z,2.50
2023-04-03T04:46:09.327Z,2.70
2023-04-03T04:48:43.933Z,2.77
2023-04-03T04:51:14.068Z,2.93
2023-04-03T04:53:46.316Z,2.60
2023-04-03T04:56:16.296Z,5.10
2023-04-03T04:58:44.692Z,3.27
2023-04-03T05:01:13.049Z,3.10
2023-04-03T05:03:56.734Z,3.17
2023-04-03T05:06:24.789Z,3.70
2023-04-03T05:08:52.648Z,3.00
2023-04-03T05:11:21.531Z,2.40
2023-04-03T05:13:52.813Z,2.80
2023-04-03T05:16:23.839Z,3.20
2023-04-03T05:18:52.273Z,3.67
2023-04-03T05:21:24.425Z,4.40
2023-04-03T05:23:54.039Z,3.70
2023-04-03T05:26:23.023Z,3.50
2023-04-03T05:28:51.998Z,3.60
2023-04-03T05:31:25.664Z,3.00
2023-04-03T05:33:53.279Z,3.00
2023-04-03T05:36:21.064Z,3.27
2023-04-03T05:38:54.116Z,3.13
2023-04-03T05:41:22.799Z,3.40
2023-04-03T05:43:55.031Z,3.43
2023-04-03T05:46:25.630Z,3.50
2023-04-03T05:48:57.284Z,3.23
2023-04-03T05:51:32.185Z,3.47
2023-04-03T05:54:13.206Z,3.40
2023-04-03T05:56:40.616Z,3.27
2023-04-03T05:59:08.673Z,3.50
2023-04-03T06:01:36.842Z,3.37
2023-04-03T06:04:06.266Z,3.47
2023-04-03T06:06:49.039Z,3.27
2023-04-03T06:09:18.461Z,3.30
2023-04-03T06:11:46.049Z,4.27
2023-04-03T06:14:13.782Z,3.93
2023-04-03T06:16:41.427Z,5.00
2023-04-03T06:19:09.752Z,3.80
2023-04-03T06:21:44.952Z,3.50
2023-04-03T06:24:18.084Z,3.80
2023-04-03T06:26:49.169Z,4.70
2023-04-03T06:29:17.371Z,5.17
2023-04-03T06:31:45.277Z,6.57
2023-04-03T06:34:13.795Z,3.87
2023-04-03T06:36:42.338Z,4.80
2023-04-03T06:39:11.750Z,3.80
2023-04-03T06:41:39.985Z,3.90
2023-04-03T06:44:08.225Z,4.00
2023-04-03T06:46:36.514Z,4.40
2023-04-03T06:49:06.997Z,3.30
2023-04-03T06:51:35.901Z,3.80
2023-04-03T06:54:04.450Z,3.63
2023-04-03T06:56:35.123Z,4.20
2023-04-03T06:59:07.105Z,3.50
2023-04-03T07:01:37.330Z,4.70
2023-04-03T07:04:11.593Z,3.40
2023-04-03T07:06:47.117Z,3.97
2023-04-03T07:09:15.333Z,4.30
2023-04-03T07:11:43.000Z,4.67
2023-04-03T07:14:10.235Z,3.90
2023-04-03T07:16:40.021Z,4.03
2023-04-03T07:19:10.018Z,3.80
2023-04-03T07:21:39.565Z,4.47
2023-04-03T07:24:12.977Z,3.50
2023-04-03T07:26:46.189Z,4.67
2023-04-03T07:29:13.463Z,3.90
2023-04-03T07:31:53.877Z,4.20
2023-04-03T07:34:29.394Z,3.97
2023-04-03T07:36:57.779Z,3.73
2023-04-03T07:45:59.408Z,3.17
2023-04-03T07:48:28.150Z,4.10
2023-04-03T07:50:56.157Z,4.33
2023-04-03T07:53:35.886Z,4.03
2023-04-03T08:05:55.152Z,3.87
2023-04-03T08:08:24.620Z,3.63
2023-04-03T08:10:53.299Z,3.37
2023-04-03T08:13:21.805Z,3.10
2023-04-03T08:15:49.220Z,4.03
2023-04-03T08:18:17.668Z,3.70
2023-04-03T08:20:46.509Z,4.07
2023-04-03T08:23:13.935Z,3.40
2023-04-03T08:25:46.658Z,3.60
2023-04-03T08:28:14.153Z,3.73
2023-04-03T08:30:42.220Z,3.67
2023-04-03T08:33:11.219Z,4.10
2023-04-03T08:35:42.350Z,3.33
2023-04-03T08:38:10.939Z,3.60
2023-04-03T08:40:38.458Z,4.17
2023-04-03T08:43:09.859Z,3.43
2023-04-03T08:45:53.933Z,3.63
2023-04-03T08:48:23.305Z,3.73
2023-04-03T08:50:55.081Z,4.30
2023-04-03T08:53:23.407Z,3.33
2023-04-03T08:55:51.758Z,4.27
2023-04-03T08:58:33.888Z,3.27
2023-04-03T09:01:06.643Z,4.40
2023-04-03T09:03:42.951Z,3.27
2023-04-03T09:06:37.322Z,3.87
2023-04-03T09:09:12.067Z,3.40
2023-04-03T09:11:48.596Z,3.20
2023-04-03T09:14:39.132Z,3.30
2023-04-03T09:17:15.300Z,3.10
2023-04-03T09:19:46.784Z,2.90
2023-04-03T09:22:22.549Z,4.80
2023-04-03T09:24:54.160Z,4.07
2023-04-03T09:27:21.752Z,3.70
2023-04-03T09:29:49.365Z,3.87
2023-04-03T09:32:27.232Z,4.00
2023-04-03T09:34:56.258Z,3.93
2023-04-03T09:37:41.226Z,4.37
2023-04-03T09:40:27.761Z,4.07
2023-04-03T09:43:01.743Z,3.80
2023-04-03T09:45:37.623Z,4.70
2023-04-03T09:48:08.354Z,4.10
2023-04-03T09:50:36.741Z,3.53
2023-04-03T09:53:08.660Z,3.80
2023-04-03T09:55:43.716Z,4.80
2023-04-03T09:58:25.500Z,3.50
2023-04-03T10:01:00.509Z,4.00
2023-04-03T10:03:36.447Z,4.27
2023-04-03T10:06:05.981Z,3.60
2023-04-03T10:08:36.125Z,3.97
2023-04-03T10:11:08.567Z,3.57
2023-04-03T10:13:45.088Z,4.03
2023-04-03T10:16:21.842Z,4.20
2023-04-03T10:19:02.716Z,3.57
2023-04-03T10:21:30.484Z,3.77
2023-04-03T10:24:11.758Z,4.30
2023-04-03T10:26:52.287Z,3.60
2023-04-03T10:29:29.198Z,3.73
2023-04-03T10:32:04.900Z,4.07
2023-04-03T10:34:54.762Z,3.83
2023-04-03T10:37:40.666Z,4.27
2023-04-03T10:40:24.836Z,4.60
2023-04-03T10:42:59.591Z,5.00
2023-04-03T10:45:33.902Z,4.90
2023-04-03T10:48:20.761Z,4.23
2023-04-03T10:50:53.892Z,4.57
2023-04-03T10:53:37.659Z,5.20
2023-04-03T10:56:05.879Z,4.80
2023-04-03T10:58:55.492Z,4.30
2023-04-03T11:01:25.336Z,4.00
2023-04-03T11:03:55.232Z,4.20
2023-04-03T11:06:25.695Z,4.37
2023-04-03T11:08:58.283Z,3.50
2023-04-03T11:11:30.933Z,4.00
2023-04-03T11:14:04.245Z,4.57
2023-04-03T11:16:43.929Z,4.17
2023-04-03T11:19:22.469Z,4.03
2023-04-03T11:21:54.338Z,3.90
2023-04-03T11:24:27.631Z,3.80
2023-04-03T11:26:56.564Z,3.67
2023-04-03T11:29:34.922Z,3.90
2023-04-03T11:32:13.069Z,3.90
2023-04-03T11:34:45.905Z,3.20
2023-04-03T11:37:27.145Z,3.43
2023-04-03T11:39:57.660Z,4.10
2023-04-03T11:42:35.492Z,4.00
2023-04-03T11:45:18.019Z,4.00
2023-04-03T11:47:47.061Z,4.03
2023-04-03T11:50:33.654Z,3.37
2023-04-03T11:53:02.731Z,4.00
2023-04-03T11:55:32.631Z,4.53
2023-04-03T11:58:04.700Z,3.80
2023-04-03T12:00:51.564Z,3.60
2023-04-03T12:03:29.044Z,3.43
2023-04-03T12:06:10.994Z,4.70
2023-04-03T12:08:41.279Z,4.30
2023-04-03T12:11:11.606Z,4.30
2023-04-03T12:13:57.661Z,3.43
2023-04-03T12:16:30.460Z,4.43
2023-04-03T12:19:01.315Z,4.00
2023-04-03T12:21:29.582Z,3.57
2023-04-03T12:24:09.429Z,4.57
2023-04-03T12:27:02.931Z,4.00
2023-04-03T12:29:36.605Z,4.03
2023-04-03T12:32:21.065Z,3.50
2023-04-03T12:34:57.545Z,4.30
2023-04-03T12:37:41.382Z,4.30
2023-04-03T12:40:08.833Z,5.20
2023-04-03T12:42:44.381Z,3.40
2023-04-03T12:45:20.933Z,4.53
2023-04-03T12:47:52.329Z,4.40
2023-04-03T12:50:26.480Z,4.53
2023-04-03T12:52:58.258Z,5.27
2023-04-03T12:55:28.357Z,4.30
2023-04-03T12:57:56.413Z,3.90
2023-04-03T13:00:28.238Z,3.73
2023-04-03T13:02:56.551Z,4.03
2023-04-03T13:05:25.809Z,4.57
2023-04-03T13:08:00.709Z,4.33
2023-04-03T13:10:27.859Z,3.97
2023-04-03T13:12:57.021Z,3.90
2023-04-03T13:15:32.128Z,4.03
2023-04-03T13:17:59.560Z,4.07
2023-04-03T13:20:36.793Z,4.40
2023-04-03T13:23:10.325Z,4.33
2023-04-03T13:25:42.378Z,3.90
2023-04-03T13:28:15.204Z,4.40
2023-04-03T13:30:55.418Z,4.30
2023-04-03T13:33:25.508Z,4.63
2023-04-03T13:35:57.780Z,4.30
2023-04-03T13:38:27.847Z,4.53
2023-04-03T13:41:01.640Z,5.43
2023-04-03T13:43:30.392Z,4.23
2023-04-03T13:46:17.551Z,3.97
2023-04-03T13:48:48.828Z,4.23
2023-04-03T13:51:16.582Z,4.47
2023-04-03T13:53:45.727Z,4.40
2023-04-03T13:56:31.419Z,4.40
2023-04-03T13:59:23.192Z,4.63
2023-04-03T14:01:55.425Z,4.73
2023-04-03T14:04:28.780Z,4.27
2023-04-03T14:06:56.133Z,4.17
2023-04-03T14:09:24.141Z,4.37
2023-04-03T14:11:53.481Z,6.10
2023-04-03T14:14:23.341Z,3.93
2023-04-03T14:16:54.704Z,4.20
2023-04-03T14:19:24.394Z,3.70
2023-04-03T14:21:55.511Z,3.60
2023-04-03T14:24:23.093Z,3.97
2023-04-03T14:26:51.765Z,3.30
2023-04-03T14:29:19.311Z,3.60
2023-04-03T14:31:47.250Z,3.07
2023-04-03T14:34:15.798Z,3.10
2023-04-03T14:36:43.824Z,3.20
2023-04-03T14:39:18.606Z,3.00
2023-04-03T14:41:46.185Z,3.27
2023-04-03T14:44:13.722Z,2.80
2023-04-03T14:46:56.071Z,3.00
2023-04-03T14:49:26.471Z,2.97
2023-04-03T14:51:56.679Z,3.10
2023-04-03T14:54:28.634Z,2.93
2023-04-03T14:56:57.307Z,2.97
2023-04-03T14:59:24.720Z,2.53
2023-04-03T15:01:52.082Z,2.70
2023-04-03T15:04:22.710Z,3.07
2023-04-03T15:06:50.269Z,2.73
2023-04-03T15:09:36.533Z,3.33
2023-04-03T15:12:03.767Z,2.80
2023-04-03T15:14:36.766Z,2.90
2023-04-03T15:17:22.206Z,2.57
2023-04-03T15:19:49.551Z,2.23
2023-04-03T15:22:21.094Z,2.50
2023-04-03T15:24:48.259Z,3.00
2023-04-03T15:27:16.289Z,2.80
2023-04-03T15:29:44.026Z,2.97
2023-04-03T15:32:12.623Z,2.50
2023-04-03T15:34:40.874Z,2.30
2023-04-03T15:37:08.046Z,2.53
2023-04-03T15:39:35.265Z,2.90
2023-04-03T15:42:06.860Z,3.33
2023-04-03T15:44:34.996Z,3.17
2023-04-03T15:47:02.601Z,2.60
2023-04-03T15:49:30.737Z,3.53
2023-04-03T15:51:58.020Z,2.80
2023-04-03T15:54:26.511Z,2.57
2023-04-03T15:56:54.618Z,3.00
2023-04-03T15:59:21.860Z,2.70
2023-04-03T16:01:51.288Z,3.60
2023-04-03T16:04:19.507Z,2.40
2023-04-03T16:06:53.085Z,2.88
2023-04-03T16:09:21.766Z,2.10
2023-04-03T16:11:51.889Z,2.80
2023-04-03T16:14:21.218Z,2.30
2023-04-03T16:16:49.632Z,2.70
2023-04-03T16:19:17.900Z,2.53
2023-04-03T16:21:45.222Z,2.07
2023-04-03T16:24:15.183Z,3.10
2023-04-03T16:26:46.966Z,2.63
2023-04-03T16:29:14.293Z,3.60
2023-04-03T16:31:41.667Z,3.47
2023-04-03T16:34:08.855Z,2.60
2023-04-03T16:36:36.082Z,3.10
2023-04-03T16:39:03.794Z,3.27
2023-04-03T16:41:33.203Z,3.37
2023-04-03T16:44:00.473Z,2.43
2023-04-03T16:46:27.680Z,2.83
2023-04-03T16:48:56.393Z,2.70
2023-04-03T16:51:24.356Z,3.07
2023-04-03T16:53:51.583Z,2.47
2023-04-03T16:56:19.385Z,2.60
2023-04-03T16:58:46.811Z,2.37
2023-04-03T17:01:20.122Z,3.37
2023-04-03T17:03:48.960Z,3.13
2023-04-03T17:06:24.207Z,2.13
2023-04-03T17:08:52.255Z,2.70
2023-04-03T17:11:29.140Z,3.13
2023-04-03T17:13:57.454Z,2.67
2023-04-03T17:16:29.848Z,2.83
2023-04-03T17:18:57.439Z,3.20
2023-04-03T17:21:24.662Z,3.17
2023-04-03T17:23:53.672Z,3.57
2023-04-03T17:26:24.179Z,2.60
2023-04-03T17:28:52.405Z,2.57
2023-04-03T17:31:20.841Z,2.90
2023-04-03T17:33:48.345Z,4.00
2023-04-03T17:36:18.991Z,3.90
2023-04-03T17:38:48.656Z,2.77
2023-04-03T17:41:17.091Z,3.50
2023-04-03T17:43:44.378Z,3.17
2023-04-03T17:46:12.217Z,2.50
2023-04-03T17:48:41.164Z,2.80
2023-04-03T17:51:13.978Z,2.77
2023-04-03T17:53:41.703Z,3.20
2023-04-03T17:56:17.736Z,3.33
2023-04-03T17:58:45.298Z,3.00
2023-04-03T18:01:14.156Z,3.00
2023-04-03T18:03:42.110Z,3.60
2023-04-03T18:06:10.953Z,3.30
2023-04-03T18:08:39.766Z,3.00
2023-04-03T18:11:07.089Z,2.47
2023-04-03T18:13:37.436Z,3.27
2023-04-03T18:16:05.934Z,2.80
2023-04-03T18:18:34.529Z,3.23
2023-04-03T18:21:01.818Z,3.63
2023-04-03T18:23:31.781Z,2.77
2023-04-03T18:26:00.296Z,2.80
2023-04-03T18:28:29.316Z,2.73
2023-04-03T18:30:57.085Z,2.83
2023-04-03T18:33:25.690Z,2.97
2023-04-03T18:35:53.077Z,2.97
2023-04-03T18:38:20.336Z,2.70
2023-04-03T18:40:48.593Z,2.50
2023-04-03T18:43:15.980Z,2.57
2023-04-03T18:45:43.394Z,2.60
2023-04-03T18:48:10.751Z,3.70
2023-04-03T18:50:38.272Z,3.90
2023-04-03T18:53:10.870Z,3.47
2023-04-03T18:55:38.083Z,3.83
2023-04-03T18:58:05.405Z,2.90
2023-04-03T19:00:33.211Z,3.10
2023-04-03T19:03:01.059Z,2.60
2023-04-03T19:05:28.565Z,3.10
2023-04-03T19:07:57.061Z,2.60
2023-04-03T19:10:24.479Z,2.73
2023-04-03T19:12:52.766Z,2.80
2023-04-03T19:15:21.798Z,2.80
2023-04-03T19:17:49.311Z,2.87
2023-04-03T19:20:19.306Z,2.70
2023-04-03T19:22:47.180Z,2.50
2023-04-03T19:25:20.938Z,3.17
2023-04-03T19:27:49.294Z,2.80
2023-04-03T19:30:16.891Z,3.10
2023-04-03T19:32:44.158Z,3.07
2023-04-03T19:35:11.488Z,2.80
2023-04-03T19:37:38.877Z,2.53
2023-04-03T19:40:06.820Z,3.00
2023-04-03T19:42:36.617Z,2.83
2023-04-03T19:45:06.283Z,3.97
2023-04-03T19:47:35.907Z,3.10
2023-04-03T19:50:05.795Z,2.90
2023-04-03T19:52:33.414Z,3.00
2023-04-03T19:55:01.954Z,2.60
2023-04-03T19:57:29.315Z,3.87
2023-04-03T19:59:56.532Z,2.40
2023-04-03T20:02:23.780Z,2.60
2023-04-03T20:04:51.320Z,3.50
2023-04-03T20:07:18.655Z,3.30
2023-04-03T20:09:46.001Z,3.93
2023-04-03T20:12:13.541Z,3.17
2023-04-03T20:14:40.938Z,2.67
2023-04-03T20:17:08.712Z,2.80
2023-04-03T20:19:36.702Z,3.10
2023-04-03T20:22:03.973Z,3.47
2023-04-03T20:24:31.570Z,2.90
2023-04-03T20:26:59.356Z,2.83
2023-04-03T20:29:27.218Z,2.60
2023-04-03T20:31:55.479Z,3.00
2023-04-03T20:34:22.780Z,2.73
2023-04-03T20:36:50.354Z,3.10
2023-04-03T20:39:24.340Z,2.70
2023-04-03T20:41:51.678Z,2.90
2023-04-03T20:44:19.686Z,3.20
2023-04-03T20:46:52.711Z,3.20
2023-04-03T20:49:21.093Z,2.63
2023-04-03T20:51:48.499Z,3.10
2023-04-03T20:54:17.378Z,3.80
2023-04-03T20:56:49.592Z,3.30
2023-04-03T20:59:18.318Z,2.57
2023-04-03T21:01:46.764Z,2.97
2023-04-03T21:04:18.371Z,2.90
2023-04-03T21:07:04.453Z,4.00
2023-04-03T21:09:51.403Z,3.33
2023-04-03T21:12:38.048Z,2.93
2023-04-03T21:15:24.722Z,3.13
2023-04-03T21:18:10.062Z,2.53
2023-04-03T21:20:37.279Z,2.43
2023-04-03T21:23:04.896Z,3.10
2023-04-03T21:25:33.239Z,3.17
2023-04-03T21:28:00.737Z,3.17
2023-04-03T21:30:28.198Z,2.63
2023-04-03T21:32:56.348Z,3.30
2023-04-03T21:35:24.645Z,2.53
2023-04-03T21:37:52.823Z,3.00
2023-04-03T21:40:21.515Z,3.03
2023-04-03T21:42:53.981Z,3.27
2023-04-03T21:45:21.222Z,2.40
2023-04-03T21:47:48.547Z,3.00
2023-04-03T21:50:16.027Z,3.00
2023-04-03T21:52:43.942Z,3.00
2023-04-03T21:55:12.381Z,2.80
2023-04-03T21:57:39.925Z,3.20
2023-04-03T22:00:10.671Z,3.00
2023-04-03T22:02:41.238Z,3.10
2023-04-03T22:05:08.694Z,2.97
2023-04-03T22:07:38.028Z,2.70
2023-04-03T22:10:06.133Z,3.37
2023-04-03T22:12:34.434Z,3.50
2023-04-03T22:15:02.182Z,3.50
2023-04-03T22:17:32.720Z,3.23
2023-04-03T22:19:59.891Z,3.00
2023-04-03T22:22:27.155Z,2.80
2023-04-03T22:24:55.505Z,3.00
2023-04-03T22:27:22.720Z,3.20
2023-04-03T22:29:49.930Z,3.37
2023-04-03T22:32:17.085Z,3.20
2023-04-03T22:34:46.661Z,3.20
2023-04-03T22:37:16.453Z,3.20
2023-04-03T22:39:43.930Z,4.17
2023-04-03T22:42:11.177Z,3.23
2023-04-03T22:44:38.776Z,3.40
2023-04-03T22:47:08.061Z,3.27
2023-04-03T22:49:35.561Z,3.43
2023-04-03T22:52:02.713Z,2.83
2023-04-03T22:54:29.895Z,3.10
2023-04-03T22:56:57.310Z,3.77
2023-04-03T22:59:25.431Z,3.30
2023-04-03T23:01:52.888Z,3.40
2023-04-03T23:04:21.928Z,3.30
2023-04-03T23:06:49.557Z,3.40
2023-04-03T23:09:16.978Z,3.00
2023-04-03T23:11:44.190Z,3.40
2023-04-03T23:14:11.607Z,3.13
2023-04-03T23:16:39.069Z,3.87
2023-04-03T23:19:07.247Z,3.47
2023-04-03T23:21:34.957Z,2.80
2023-04-03T23:24:02.422Z,3.67
2023-04-03T23:26:31.256Z,3.90
2023-04-03T23:28:58.475Z,3.20
2023-04-03T23:31:26.933Z,2.87
2023-04-03T23:33:54.181Z,3.40
2023-04-03T23:36:21.738Z,3.60
2023-04-03T23:38:49.150Z,3.60
2023-04-03T23:41:16.603Z,3.73
2023-04-03T23:43:46.541Z,3.87
2023-04-03T23:46:14.208Z,3.93
2023-04-03T23:48:41.439Z,3.40
2023-04-03T23:51:08.703Z,3.30
2023-04-03T23:53:36.371Z,3.70
2023-04-03T23:56:09.696Z,3.60
2023-04-03T23:58:36.910Z,4.00
